Tous les Résultats et les Classements des Compétitions E.S.F.

ESF REALLON "ESF SKI TOUR 2015", le 31/01/2015  

 Epreuve antérieure au 1er Décembre 2016, ne comptant plus pour le classement SkiOpen.

Ouvreur Handicap Temps Réalisé Temps Base
LELONG OLIVIER 6.00 55.87 52.71
Médaille Or Vermeil Argent Bronze Fléchette
Pourcentage 15.00% 28.00% 40.00% 45.00% 50.00%
Temps 1:00.62 1:07.47 1:13.79 1:19.07 1:21.70
Clt.   Identité Code S. An Cat Temps Pts Médaille
1 SANCHEZ ACHILLE FFS2647050 M 2001 BEN 58.04 10.11 Or
2 BONNAFFOUX CHLOE FFS2663233 F 2001 BEN 59.26 12.43 Or
3 JACQUEMOND THEO FFS2668141 M 2001 BEN 1:00.05 13.93 Or
4 RIPPERT DYLAN FFS2668210 M 1999 MIN 1:00.39 14.57 Or
5 ROTONDO LEO ESF1464410066 M 2001 BEN 1:00.43 14.65 Or
6 ROUX MATHILDE FFS2649999 F 2001 BEN 1:01.32 16.33 Vermeil
7 CHANTOIS SOLENE FFS2676052 F 2003 POU 1:01.41 16.51 Vermeil
8 MEERT ANDREA FFS2658685 M 2000 MIN 1:01.65 16.96 Vermeil
9 FISCHER JULIE FFS2658904 F 2000 MIN 1:01.85 17.34 Vermeil
10 MEDDE ISAURE FFS2662850 F 2000 MIN 1:03.03 19.58 Vermeil
11 ABOU JOHANNA FFS2668021 F 2003 POU 1:03.10 19.71 Vermeil
12 GLEIZE ALEXANDRE FFS2657148 M 2002 BEN 1:03.15 19.81 Vermeil
13 FRIEDEWALD SAMUEL FFS2663032 M 2001 BEN 1:03.91 21.25 Vermeil
14 BELMONTE JOHAN FFS2668907 M 2002 BEN 1:04.45 22.27 Vermeil
15 REYNIER LUCIE FFS2645944 F 2001 BEN 1:04.84 23.01 Vermeil
16 ERARIO SOLENE FFS2669297 F 2000 MIN 1:05.03 23.37 Vermeil
17 BOISSET THOMAS FFS2668739 M 2002 BEN 1:05.71 24.66 Vermeil
18 JOUVET ENGUERAN FFS2674549 M 2003 POU 1:06.15 25.50 Vermeil
19 CHESNEL MATHIS FFS2650003 M 2002 BEN 1:06.16 25.52 Vermeil
20 PONS VALERE FFS2678032 M 2004 POU 1:06.56 26.28 Vermeil
21 PATRAS MARGOT FFS2658710 F 2001 BEN 1:06.65 26.45 Vermeil
22 BLANC MATHIAS FFS2666721 M 2004 POU 1:06.67 26.48 Vermeil
23 MURELLO LORENZO FFS2659329 M 2004 POU 1:06.83 26.79 Vermeil
24 GROLLIER JULIE FFS2674166 F 2004 POU 1:06.85 26.83 Vermeil
25 MURELLO STELLA FFS2659330 F 2004 POU 1:07.00 27.11 Vermeil
26 LARD SAMUEL FFS2668207 M 1999 MIN 1:07.26 27.60 Vermeil
27 CHANTOIS MAYLIS FFS2676056 F 2001 BEN 1:07.45 27.96 Vermeil
28 DITTMANN LUCAS ESF1464410079 M 2000 MIN 1:07.56 28.17 Argent
29 ARNERA ROBIN FFS2652572 M 2005 MIC 1:08.15 29.29 Argent
30 STEFANI NELL FFS2669128 F 2002 BEN 1:08.22 29.43 Argent
31 SEGURA MATHIS ESF1332310075 M 2002 BEN 1:08.42 29.80 Argent
32 CRAISSE LOUNA FFS2645935 F 2002 BEN 1:08.59 30.13 Argent
33 FERRIER ISABEL FFS2674169 F 2003 POU 1:08.60 30.15 Argent
34 PONS CHLOE FFS2679149 F 2005 MIC 1:09.45 31.76 Argent
35 POLI JULES ESF1464410056 M 2002 BEN 1:09.58 32.01 Argent
36 BRUNET DEBAINES THOMAS ESF1564410009 M 2002 BEN 1:09.62 32.08 Argent
37 DESTOUMIEUX HUGO FFS2673556 M 2005 MIC 1:09.93 32.67 Argent
38 OLMO EMILIE FFS2674164 F 2006 MIC 1:10.01 32.82 Argent
39 PATRAS SAMY FFS2658709 M 2003 POU 1:10.27 33.31 Argent
40 FORNARO CLEMENT FFS2678040 M 2004 POU 1:10.36 33.49 Argent
41 DEMAISON CHARLIE FFS2674168 M 2006 MIC 1:10.62 33.98 Argent
42 DARRIES PIERRE FFS2678289 M 1999 MIN 1:10.64 34.02 Argent
43 JACQUEMOND THOMAS FFS2672913 M 2004 POU 1:10.70 34.13 Argent
44 WAY MATHILDE FFS2678283 F 2003 POU 1:10.74 34.21 Argent
45 BARD CHARLY FFS2674547 M 2004 POU 1:10.88 34.47 Argent
46 SERRES ELIE ESF1564410060 M 2002 BEN 1:10.93 34.57 Argent
47 CARON MOUTINHO NATHAN FFS2653423 M 2002 BEN 1:11.00 34.70 Argent
48 FAURE BRAC CAPUCINE FFS2678285 F 2006 MIC 1:11.52 35.69 Argent
49 ACCART JUSTINE FFS2664919 F 2004 POU 1:11.80 36.22 Argent
50 PAULUS VANINA ESF1252161139 F 2004 POU 1:11.81 36.24 Argent
51 BARRE KHALIL ESF1452162370 M 2003 POU 1:12.27 37.11 Argent
52 DOHET JORIS FFS2653084 M 2002 BEN 1:12.36 37.28 Argent
53 BLANC CELIA FFS2666000 F 2005 MIC 1:12.42 37.39 Argent
54 BROCHIER EMY FFS2678286 F 2003 POU 1:12.60 37.73 Argent
55 DANAU LENA FFS2679428 F 2000 MIN 1:13.27 39.01 Argent
56 PAULUS MATTHIAS FFS2679424 M 2002 BEN 1:13.50 39.44 Argent
57 SERRES SUZY ESF1564410061 F 2001 BEN 1:14.09 40.56 Bronze
58 MELIKIAN THEO ESF1552160776 M 2014 MIC 1:14.42 41.19 Bronze
59 DOU MAXIME FFS2679528 M 2007 MIC 1:14.45 41.24 Bronze
60 CRESPIN MAELLE FFS2680128 F 2006 MIC 1:14.67 41.66 Bronze
61 REYNIER ARTHUR ESF1252161055 M 2003 POU 1:14.90 42.10 Bronze
62 GIRARD LLUCIA FFS2679301 F 2007 MIC 1:15.35 42.95 Bronze
63 LOUCHE ZOE FFS2680487 F 2005 MIC 1:15.76 43.73 Bronze
64 SECCI MATTIA FFS2679251 M 2005 MIC 1:16.28 44.72 Bronze
65 PECOURT THOMAS ESF0952160789 M 2002 BEN 1:16.77 45.65 Bronze
66 HUBERT CHLOE FFS2680033 F 2007 MIC 1:17.17 46.40 Bronze
67 CIAVATTI MATHIS FFS2671973 M 2005 MIC 1:17.18 46.42 Bronze
68 PONS ARISTIDE FFS2678034 M 2007 MIC 1:18.65 49.21 Bronze
69 RAYMOND JULIE FFS2678954 F 2000 MIN 1:20.31 52.36 Fléchette
70 BLANC MATHILDA FFS2666720 F 2005 MIC 1:20.65 53.01 Fléchette
71 ROUIT MATTEO FFS2679963 M 2006 MIC 1:21.23 54.11 Fléchette
72 BROCHE JOHAN ESF1464410078 M 2000 MIN 1:22.07 55.70
73 ANTOINE MARINE ESF1348510290 F 2005 MIC 1:24.08 59.51
74 ABOU VICTORIA FFS2679304 F 2007 MIC 1:25.86 62.89
NASRI ENZO ESF1552161052 M 2001 BEN ABD
BELMONTE HUGO FFS2679490 M 2005 MIC ABD
DAVID JOCELYN FFS2658602 M 2004 POU ABD
LACOMBE HUGO ESF1264410161 M 2000 MIN ABD
STEFANI LEA FFS2662856 F 2000 MIN ABD
PONS ARTHUR FFS2668195 M 2001 BEN ABD
THOMAS AMANDINE FFS2646945 F 2000 MIN ABD
MULDER TESSA FFS2645734 F 1999 MIN ABD
BONNAFFOUX CAMILLE FFS2664560 F 2004 POU ABD
FERRIER LEO FFS2679962 M 2006 MIC DSQ
LECOCQ ENZO FFS2680231 M 2003 POU DSQ
GUILLON YAEL FFS2657147 M 2002 BEN DSQ
CONTRUCCI MARCUS FFS2673405 M 2002 BEN DSQ
LE GALL DAMIEN FFS2673968 M 2000 MIN ABS
DESJARDINS CHARLY FFS2671403 M 2006 MIC ABS